LGKP

Details ICAO LGKP (AOK)
Name KARPATHOS
Region Greece
Timezone Europe/Athens (UTC+2.0)
Plans Departing 35
Arriving 49
Stats Elevation 66 ft / 20 m (AMSL)
Location 35.421407° 27.146007°
Runways 1
Magnetic Variation 4.589° E
Sunrise 2017-12-14 05:13:51 UTC / 2017-12-14 07:13:51 Local
Sunset 2017-12-14 15:01:04 UTC / 2017-12-14 17:01:04 Local
Advertisement - Login to hide

Runways

ID Width Length Bearing (true) Bearing (mag) Surface Threshold Offset Overrun Length
12 98 ft / 30 m 7,866 ft / 2,398 m 124.49° 119.90° Asphalt 492 ft / 150 m 983 ft / 300 m
30 98 ft / 30 m 7,866 ft / 2,398 m 304.50° 299.91° Asphalt 492 ft / 150 m 458 ft / 140 m

Map

Weather


0- 5 10 15 20 25 30 35+ Temperature / ° C

Clouds and Precipitation
Forecast for 2017-12-14 00:00 UTC. Updated an hour ago

Ground ~20,000 ft ~40,000 ft Winds

METAR

LGKP 132220Z AUTO 27014KT //// // ////// 16/11 Q1019 RE//

TAF

Not found

Frequencies

Tower 123.20 MHz INFO
Tower 122.10 MHz INFO
Warning: Do not use this data for real-world aviation or navigation. No guarantee of current accuracy is given.